KFBG

Simmons AAF Airport

Fort Bragg, North Carolina, USA
METAR KFBG 181256Z AUTO 00000KT 4SM BR OVC023 07/07 A3010 RMK AO2 SLP197 T00680068
Observed Flight Rules
Jan-18 @ 12:56 UTC (an hour ago) Marginal Visual Flight Rules
Visibility Clouds Conditions
4 miles
  • Overcast at 2,300' AGL
  • Mist
Temperatures Readings
Current 7°C / 45°F
Dewpoint 7°C / 45°F
Humidity 100%
Altimeter 30.1" Hg
Pressure 1019.7 hPa
Elevation 74
METAR KFBG 181256Z AUTO 00000KT 4SM BR OVC023 07/07 A3010 RMK AO2 SLP197 T00680068
Observed Flight Rules
Jan-18 @ 12:56 UTC
(an hour ago)
MVFR
Clouds
  • Overcast at 2,300' AGL
Conditions
  • Mist
Temperature Dewpoint
7°C / 45°F 7°C / 45°F
Humidity Altimeter Pressure
100% 30.1" Hg 1019.7 hPa